createdAt,value
2023-04-02T00:02:31.206Z,69.57
2023-04-02T00:05:16.730Z,70.65
2023-04-02T00:07:48.874Z,70.12
2023-04-02T00:10:27.654Z,72.82
2023-04-02T00:13:04.394Z,73.34
2023-04-02T00:15:31.693Z,70.50
2023-04-02T00:18:00.008Z,71.56
2023-04-02T00:20:28.495Z,71.92
2023-04-02T00:22:56.601Z,72.80
2023-04-02T00:25:28.271Z,71.78
2023-04-02T00:27:56.601Z,71.68
2023-04-02T00:30:23.269Z,72.46
2023-04-02T00:32:50.053Z,72.60
2023-04-02T00:35:26.188Z,72.96
2023-04-02T00:37:53.351Z,72.92
2023-04-02T00:40:23.961Z,71.68
2023-04-02T00:42:50.876Z,72.17
2023-04-02T00:45:33.291Z,71.83
2023-04-02T00:48:13.395Z,71.32
2023-04-02T00:50:43.540Z,71.11
2023-04-02T00:53:17.390Z,70.48
2023-04-02T00:55:44.263Z,70.43
2023-04-02T00:58:30.053Z,70.79
2023-04-02T01:00:57.041Z,70.10
2023-04-02T01:03:30.614Z,68.77
2023-04-02T01:06:04.183Z,68.56
2023-04-02T01:08:45.474Z,68.64
2023-04-02T01:11:49.630Z,69.12
2023-04-02T01:14:44.367Z,69.04
2023-04-02T01:17:26.569Z,69.15
2023-04-02T01:20:07.608Z,68.76
2023-04-02T01:23:00.302Z,67.84
2023-04-02T01:25:54.732Z,67.88
2023-04-02T01:28:51.557Z,68.14
2023-04-02T01:31:18.431Z,68.06
2023-04-02T01:33:45.451Z,68.88
2023-04-02T01:36:23.371Z,69.23
2023-04-02T01:39:02.262Z,68.99
2023-04-02T01:41:39.579Z,67.95
2023-04-02T01:44:10.330Z,68.38
2023-04-02T01:46:41.479Z,69.16
2023-04-02T01:49:18.685Z,68.65
2023-04-02T01:51:53.129Z,69.31
2023-04-02T01:54:21.062Z,69.08
2023-04-02T01:56:48.500Z,68.68
2023-04-02T01:59:22.272Z,67.82
2023-04-02T02:02:22.069Z,68.54
2023-04-02T02:04:48.827Z,67.96
2023-04-02T02:07:18.470Z,69.17
2023-04-02T02:09:45.785Z,68.69
2023-04-02T02:12:16.218Z,68.39
2023-04-02T02:14:50.358Z,67.43
2023-04-02T02:17:21.602Z,67.14
2023-04-02T02:19:52.299Z,67.60
2023-04-02T02:22:33.886Z,67.08
2023-04-02T02:25:03.689Z,67.00
2023-04-02T02:27:30.713Z,66.69
2023-04-02T02:30:04.552Z,67.10
2023-04-02T02:32:33.256Z,66.59
2023-04-02T02:35:12.845Z,66.48
2023-04-02T02:37:47.682Z,65.61
2023-04-02T02:40:36.828Z,65.80
2023-04-02T02:43:09.497Z,65.20
2023-04-02T02:45:39.198Z,65.49
2023-04-02T02:48:10.888Z,65.82
2023-04-02T02:50:38.810Z,64.83
2023-04-02T02:53:15.799Z,65.44
2023-04-02T02:55:42.533Z,65.14
2023-04-02T02:58:15.624Z,64.22
2023-04-02T03:00:42.590Z,64.51
2023-04-02T03:03:17.025Z,64.68
2023-04-02T03:05:44.934Z,64.23
2023-04-02T03:08:21.652Z,63.82
2023-04-02T03:11:01.154Z,63.54
2023-04-02T03:13:30.199Z,64.03
2023-04-02T03:16:21.655Z,63.91
2023-04-02T03:18:52.706Z,63.82
2023-04-02T03:21:37.757Z,64.03
2023-04-02T03:24:13.219Z,63.01
2023-04-02T03:26:46.005Z,63.64
2023-04-02T03:29:19.036Z,63.13
2023-04-02T03:31:50.555Z,63.85
2023-04-02T03:34:32.918Z,64.18
2023-04-02T03:37:10.037Z,63.76
2023-04-02T03:39:56.420Z,63.87
2023-04-02T03:42:26.296Z,63.87
2023-04-02T03:45:15.848Z,63.49
2023-04-02T03:47:49.950Z,63.71
2023-04-02T03:50:21.608Z,63.81
2023-04-02T03:52:48.984Z,63.51
2023-04-02T03:55:19.447Z,63.64
2023-04-02T03:58:07.834Z,64.62
2023-04-02T04:00:57.680Z,63.60
2023-04-02T04:03:30.791Z,64.20
2023-04-02T04:06:10.947Z,64.25
2023-04-02T04:08:52.083Z,64.22
2023-04-02T04:11:24.885Z,63.67
2023-04-02T04:14:00.923Z,64.96
2023-04-02T04:16:40.278Z,64.60
2023-04-02T04:19:19.207Z,66.92
2023-04-02T04:21:46.317Z,66.61
2023-04-02T04:24:39.312Z,68.70
2023-04-02T04:27:13.960Z,68.07
2023-04-02T04:29:59.113Z,67.52
2023-04-02T04:32:34.705Z,69.94
2023-04-02T04:35:38.933Z,68.47
2023-04-02T04:38:27.618Z,70.29
2023-04-02T04:40:58.912Z,70.39
2023-04-02T04:43:56.971Z,70.91
2023-04-02T04:46:33.144Z,69.21
2023-04-02T04:49:03.124Z,69.32
2023-04-02T04:51:42.567Z,70.17
2023-04-02T04:54:14.281Z,69.02
2023-04-02T04:56:46.792Z,69.68
2023-04-02T04:59:16.389Z,69.04
2023-04-02T05:01:53.312Z,68.49
2023-04-02T05:04:23.090Z,69.32
2023-04-02T05:06:56.242Z,69.24
2023-04-02T05:09:34.074Z,69.86
2023-04-02T05:12:35.460Z,69.88
2023-04-02T05:15:09.944Z,69.09
2023-04-02T05:18:05.875Z,69.97
2023-04-02T05:20:59.069Z,70.11
2023-04-02T05:23:39.675Z,68.20
2023-04-02T05:26:19.020Z,68.47
2023-04-02T05:29:00.886Z,68.58
2023-04-02T05:31:42.480Z,67.78
2023-04-02T05:34:12.415Z,67.77
2023-04-02T05:36:39.860Z,67.07
2023-04-02T05:39:11.195Z,66.26
2023-04-02T05:41:44.626Z,66.50
2023-04-02T05:44:39.130Z,65.68
2023-04-02T05:47:19.571Z,64.91
2023-04-02T05:50:05.816Z,64.87
2023-04-02T05:52:36.332Z,64.46
2023-04-02T05:55:06.946Z,64.05
2023-04-02T05:57:49.536Z,63.13
2023-04-02T06:00:39.312Z,63.10
2023-04-02T06:03:28.982Z,62.32
2023-04-02T06:06:01.285Z,62.58
2023-04-02T06:08:36.772Z,61.19
2023-04-02T06:11:13.784Z,62.68
2023-04-02T06:13:40.455Z,62.26
2023-04-02T06:16:07.482Z,61.68
2023-04-02T06:18:36.895Z,62.18
2023-04-02T06:21:05.453Z,61.87
2023-04-02T06:23:48.377Z,61.23
2023-04-02T06:26:38.873Z,60.55
2023-04-02T06:29:15.873Z,61.70
2023-04-02T06:31:50.665Z,60.82
2023-04-02T06:34:22.388Z,60.55
2023-04-02T06:36:51.754Z,60.95
2023-04-02T06:39:22.808Z,60.74
2023-04-02T06:42:07.572Z,61.33
2023-04-02T06:44:38.265Z,61.38
2023-04-02T06:47:36.523Z,60.99
2023-04-02T06:50:06.564Z,60.06
2023-04-02T06:52:39.784Z,59.86
2023-04-02T06:55:46.641Z,59.35
2023-04-02T06:58:15.591Z,59.24
2023-04-02T07:00:48.035Z,58.40
2023-04-02T07:03:27.192Z,59.23
2023-04-02T07:05:54.343Z,57.32
2023-04-02T07:08:21.419Z,58.67
2023-04-02T07:10:47.975Z,57.40
2023-04-02T07:13:20.648Z,57.49
2023-04-02T07:15:51.165Z,57.34
2023-04-02T07:18:38.202Z,56.40
2023-04-02T07:21:04.981Z,57.15
2023-04-02T07:23:31.551Z,57.29
2023-04-02T07:25:58.570Z,57.10
2023-04-02T07:28:26.060Z,57.08
2023-04-02T07:30:53.041Z,56.64
2023-04-02T07:33:23.714Z,56.93
2023-04-02T07:35:52.475Z,56.90
2023-04-02T07:38:19.449Z,57.46
2023-04-02T07:40:46.145Z,57.46
2023-04-02T07:43:12.792Z,57.30
2023-04-02T07:45:39.328Z,55.71
2023-04-02T07:48:11.449Z,57.64
2023-04-02T07:50:38.536Z,56.23
2023-04-02T07:53:07.122Z,57.82
2023-04-02T07:55:33.835Z,57.54
2023-04-02T07:58:00.737Z,58.64
2023-04-02T08:00:29.033Z,58.56
2023-04-02T08:02:56.314Z,59.81
2023-04-02T08:05:23.083Z,60.74
2023-04-02T08:07:56.934Z,61.61
2023-04-02T08:10:24.434Z,60.66
2023-04-02T08:12:51.339Z,61.44
2023-04-02T08:15:18.378Z,61.09
2023-04-02T08:17:45.863Z,60.01
2023-04-02T08:20:19.274Z,60.19
2023-04-02T08:22:46.969Z,59.19
2023-04-02T08:25:13.770Z,58.53
2023-04-02T08:27:40.570Z,58.49
2023-04-02T08:30:08.713Z,57.69
2023-04-02T08:32:35.636Z,58.33
2023-04-02T08:35:02.697Z,59.08
2023-04-02T08:37:29.355Z,59.16
2023-04-02T08:39:55.919Z,58.79
2023-04-02T08:42:49.325Z,58.66
2023-04-02T08:45:24.834Z,57.75
2023-04-02T08:47:56.578Z,58.52
2023-04-02T08:50:32.840Z,57.83
2023-04-02T08:53:02.460Z,57.98
2023-04-02T08:55:44.011Z,59.45
2023-04-02T08:58:50.762Z,59.81
2023-04-02T09:01:49.826Z,60.01
2023-04-02T09:04:20.166Z,59.49
2023-04-02T09:06:48.393Z,59.69
2023-04-02T09:09:16.807Z,58.97
2023-04-02T09:11:56.328Z,59.05
2023-04-02T09:14:50.019Z,59.04
2023-04-02T09:17:25.394Z,60.62
2023-04-02T09:20:23.200Z,60.13
2023-04-02T09:22:51.700Z,59.93
2023-04-02T09:25:21.905Z,60.87
2023-04-02T09:27:50.538Z,60.12
2023-04-02T09:30:32.028Z,60.91
2023-04-02T09:33:02.592Z,61.60
2023-04-02T09:35:32.456Z,61.19
2023-04-02T09:38:22.287Z,61.99
2023-04-02T09:40:54.897Z,63.02
2023-04-02T09:43:24.812Z,62.12
2023-04-02T09:46:02.154Z,63.43
2023-04-02T09:49:01.012Z,66.60
2023-04-02T09:51:35.245Z,65.81
2023-04-02T09:54:04.849Z,66.16
2023-04-02T09:56:36.362Z,66.54
2023-04-02T09:59:23.657Z,65.26
2023-04-02T10:01:56.142Z,65.45
2023-04-02T10:04:46.973Z,66.69
2023-04-02T10:07:40.034Z,66.01
2023-04-02T10:10:18.732Z,66.21
2023-04-02T10:13:00.232Z,65.39
2023-04-02T10:15:54.180Z,64.09
2023-04-02T10:18:49.098Z,65.34
2023-04-02T10:21:25.300Z,66.08
2023-04-02T10:23:51.908Z,64.40
2023-04-02T10:26:20.321Z,64.55
2023-04-02T10:29:06.766Z,63.38
2023-04-02T10:32:01.322Z,63.55
2023-04-02T10:34:43.309Z,64.75
2023-04-02T10:37:24.863Z,66.22
2023-04-02T10:39:59.782Z,66.68
2023-04-02T10:42:38.746Z,67.45
2023-04-02T10:45:31.570Z,68.38
2023-04-02T10:48:15.654Z,68.16
2023-04-02T10:50:48.130Z,67.68
2023-04-02T10:53:17.816Z,66.96
2023-04-02T10:55:51.955Z,68.45
2023-04-02T10:58:31.944Z,69.59
2023-04-02T11:01:08.103Z,71.31
2023-04-02T11:03:41.576Z,70.17
2023-04-02T11:06:17.697Z,72.32
2023-04-02T11:08:47.780Z,70.43
2023-04-02T11:11:27.894Z,69.18
2023-04-02T11:14:06.044Z,69.25
2023-04-02T11:16:34.312Z,68.69
2023-04-02T11:19:10.578Z,68.78
2023-04-02T11:21:57.358Z,69.47
2023-04-02T11:24:37.333Z,69.27
2023-04-02T11:27:05.724Z,68.24
2023-04-02T11:29:34.620Z,67.52
2023-04-02T11:32:27.428Z,67.46
2023-04-02T11:35:05.950Z,65.72
2023-04-02T11:37:44.786Z,65.88
2023-04-02T11:40:11.724Z,64.81
2023-04-02T11:42:40.923Z,64.95
2023-04-02T11:45:28.565Z,63.05
2023-04-02T11:48:01.322Z,64.10
2023-04-02T11:50:36.771Z,62.58
2023-04-02T11:53:12.288Z,61.71
2023-04-02T11:56:01.558Z,61.52
2023-04-02T11:58:47.060Z,61.31
2023-04-02T12:01:23.481Z,60.19
2023-04-02T12:04:11.479Z,60.17
2023-04-02T12:06:49.042Z,61.29
2023-04-02T12:09:53.766Z,59.78
2023-04-02T12:12:36.500Z,59.67
2023-04-02T12:15:04.576Z,59.56
2023-04-02T12:17:34.824Z,60.21
2023-04-02T12:20:09.170Z,60.14
2023-04-02T12:22:46.041Z,61.86
2023-04-02T12:25:40.382Z,63.29
2023-04-02T12:28:14.562Z,64.67
2023-04-02T12:30:41.995Z,65.57
2023-04-02T12:33:30.406Z,68.82
2023-04-02T12:35:59.505Z,67.15
2023-04-02T12:38:33.456Z,69.12
2023-04-02T12:41:03.574Z,70.83
2023-04-02T12:43:36.125Z,70.95
2023-04-02T12:46:06.410Z,71.86
2023-04-02T12:48:34.839Z,75.32
2023-04-02T12:51:03.212Z,77.38
2023-04-02T12:53:34.962Z,77.77
2023-04-02T12:56:01.945Z,78.07
2023-04-02T12:58:45.420Z,78.05
2023-04-02T13:01:16.040Z,79.03
2023-04-02T13:03:42.690Z,77.91
2023-04-02T13:06:28.058Z,77.94
2023-04-02T13:08:55.158Z,76.96
2023-04-02T13:11:22.738Z,76.74
2023-04-02T13:13:50.513Z,77.22
2023-04-02T13:16:17.059Z,76.75
2023-04-02T13:18:46.863Z,78.95
2023-04-02T13:21:16.525Z,78.25
2023-04-02T13:23:44.213Z,80.11
2023-04-02T13:26:22.046Z,80.63
2023-04-02T13:29:02.267Z,79.02
2023-04-02T13:31:32.871Z,77.81
2023-04-02T13:33:59.571Z,78.15
2023-04-02T13:36:29.215Z,79.08
2023-04-02T13:38:56.208Z,78.98
2023-04-02T13:41:27.374Z,78.50
2023-04-02T13:43:55.638Z,76.98
2023-04-02T13:46:27.887Z,76.50
2023-04-02T13:48:55.882Z,76.82
2023-04-02T13:51:27.235Z,77.30
2023-04-02T13:53:57.094Z,77.94
2023-04-02T13:56:24.644Z,77.69
2023-04-02T13:58:51.900Z,79.34
2023-04-02T14:01:21.407Z,78.47
2023-04-02T14:03:48.144Z,78.44
2023-04-02T14:06:26.246Z,78.86
2023-04-02T14:09:07.892Z,77.88
2023-04-02T14:11:58.217Z,77.50
2023-04-02T14:14:30.632Z,76.55
2023-04-02T14:17:16.298Z,76.98
2023-04-02T14:20:04.799Z,77.50
2023-04-02T14:23:08.700Z,77.63
2023-04-02T14:26:00.606Z,76.29
2023-04-02T14:28:38.094Z,76.43
2023-04-02T14:31:07.689Z,75.55
2023-04-02T14:33:47.575Z,75.96
2023-04-02T14:36:26.571Z,76.20
2023-04-02T14:38:59.109Z,75.25
2023-04-02T14:41:28.988Z,75.60
2023-04-02T14:44:02.716Z,75.85
2023-04-02T14:46:31.403Z,74.60
2023-04-02T14:49:13.164Z,75.18
2023-04-02T14:51:44.828Z,75.15
2023-04-02T14:54:18.037Z,75.26
2023-04-02T14:56:52.504Z,74.65
2023-04-02T14:59:28.245Z,74.46
2023-04-02T15:02:02.392Z,74.14
2023-04-02T15:04:38.179Z,74.20
2023-04-02T15:07:38.391Z,73.44
2023-04-02T15:10:32.190Z,73.93
2023-04-02T15:13:03.851Z,73.31
2023-04-02T15:15:43.040Z,73.93
2023-04-02T15:18:17.795Z,74.11
2023-04-02T15:21:20.093Z,74.34
2023-04-02T15:23:55.515Z,74.70
2023-04-02T15:26:29.738Z,75.07
2023-04-02T15:29:28.387Z,74.29
2023-04-02T15:32:10.298Z,75.56
2023-04-02T15:35:08.262Z,74.33
2023-04-02T15:37:55.290Z,75.21
2023-04-02T15:40:43.151Z,74.78
2023-04-02T15:43:30.548Z,75.69
2023-04-02T15:46:35.551Z,75.73
2023-04-02T15:49:20.804Z,75.76
2023-04-02T15:52:10.608Z,75.31
2023-04-02T15:54:45.551Z,75.90
2023-04-02T15:57:22.526Z,75.75
2023-04-02T16:00:03.618Z,75.80
2023-04-02T16:02:53.772Z,75.94
2023-04-02T16:05:42.340Z,75.80
2023-04-02T16:08:57.210Z,74.31
2023-04-02T16:11:25.262Z,74.45
2023-04-02T16:13:58.324Z,73.17
2023-04-02T16:16:34.027Z,73.62
2023-04-02T16:19:16.049Z,74.16
2023-04-02T16:21:50.578Z,73.81
2023-04-02T16:24:17.313Z,74.63
2023-04-02T16:26:58.107Z,73.72
2023-04-02T16:29:51.589Z,72.45
2023-04-02T16:32:51.319Z,72.79
2023-04-02T16:38:19.835Z,72.64
2023-04-02T16:41:07.039Z,71.98
2023-04-02T16:44:06.357Z,71.81
2023-04-02T16:47:11.391Z,72.26
2023-04-02T16:49:50.191Z,71.70
2023-04-02T16:52:34.762Z,71.95
2023-04-02T16:55:25.383Z,71.31
2023-04-02T16:58:27.335Z,70.87
2023-04-02T17:01:05.053Z,70.13
2023-04-02T17:04:00.088Z,70.16
2023-04-02T17:06:43.862Z,70.31
2023-04-02T17:09:28.308Z,70.26
2023-04-02T17:12:19.949Z,70.46
2023-04-02T17:14:52.299Z,69.61
2023-04-02T17:17:21.419Z,69.75
2023-04-02T17:19:51.472Z,69.97
2023-04-02T17:22:22.322Z,69.88
2023-04-02T17:25:01.607Z,70.40
2023-04-02T17:27:45.115Z,70.28
2023-04-02T17:30:29.785Z,70.29
2023-04-02T17:32:56.450Z,70.81
2023-04-02T17:35:46.597Z,70.91
2023-04-02T17:38:19.972Z,71.33
2023-04-02T17:40:54.670Z,71.41
2023-04-02T17:43:58.341Z,71.37
2023-04-02T17:46:46.972Z,71.45
2023-04-02T17:49:36.852Z,70.67
2023-04-02T17:52:14.288Z,71.05
2023-04-02T17:54:55.574Z,71.01
2023-04-02T17:58:01.218Z,70.71
2023-04-02T18:00:42.824Z,70.21
2023-04-02T18:03:18.710Z,70.90
2023-04-02T18:05:54.405Z,70.90
2023-04-02T18:08:49.361Z,71.14
2023-04-02T18:11:45.008Z,70.49
2023-04-02T18:14:30.382Z,69.71
2023-04-02T18:17:15.376Z,69.40
2023-04-02T18:20:11.020Z,69.03
2023-04-02T18:22:45.970Z,69.31
2023-04-02T18:25:21.970Z,69.78
2023-04-02T18:28:36.096Z,69.09
2023-04-02T18:31:14.766Z,69.33
2023-04-02T18:34:02.272Z,68.98
2023-04-02T18:36:52.801Z,68.18
2023-04-02T18:39:51.549Z,68.87
2023-04-02T18:42:53.560Z,68.16
2023-04-02T18:45:38.544Z,67.93
2023-04-02T18:48:10.845Z,68.48
2023-04-02T18:50:40.819Z,67.22
2023-04-02T18:53:24.167Z,67.32
2023-04-02T18:56:04.552Z,67.53
2023-04-02T18:58:53.892Z,67.09
2023-04-02T19:01:28.068Z,66.70
2023-04-02T19:04:04.500Z,66.49
2023-04-02T19:06:45.957Z,66.80
2023-04-02T19:09:17.185Z,65.83
2023-04-02T19:11:43.737Z,65.68
2023-04-02T19:14:12.986Z,65.70
2023-04-02T19:17:02.807Z,65.32
2023-04-02T19:19:32.513Z,64.77
2023-04-02T19:22:32.440Z,65.35
2023-04-02T19:25:36.692Z,64.90
2023-04-02T19:28:33.974Z,65.08
2023-04-02T19:31:17.291Z,64.56
2023-04-02T19:33:59.390Z,64.56
2023-04-02T19:36:45.441Z,64.80
2023-04-02T19:39:33.049Z,65.40
2023-04-02T19:42:15.401Z,64.69
2023-04-02T19:44:48.320Z,64.50
2023-04-02T19:47:17.500Z,65.01
2023-04-02T19:49:44.382Z,65.15
2023-04-02T19:52:11.366Z,65.92
2023-04-02T19:54:38.592Z,65.69
2023-04-02T19:57:05.646Z,65.69
2023-04-02T19:59:32.494Z,65.94
2023-04-02T20:01:59.322Z,65.91
2023-04-02T20:04:26.128Z,65.85
2023-04-02T20:06:52.865Z,65.82
2023-04-02T20:09:21.158Z,65.63
2023-04-02T20:11:47.729Z,66.24
2023-04-02T20:14:14.305Z,66.14
2023-04-02T20:16:41.836Z,66.33
2023-04-02T20:19:09.772Z,65.97
2023-04-02T20:21:38.694Z,65.92
2023-04-02T20:24:06.743Z,66.25
2023-04-02T20:26:35.258Z,65.91
2023-04-02T20:29:01.902Z,66.66
2023-04-02T20:31:28.764Z,66.32
2023-04-02T20:33:56.915Z,66.18
2023-04-02T20:36:24.818Z,66.21
2023-04-02T20:38:51.972Z,65.62
2023-04-02T20:41:19.538Z,66.50
2023-04-02T20:43:46.156Z,66.31
2023-04-02T20:46:13.402Z,65.92
2023-04-02T20:48:40.486Z,65.90
2023-04-02T20:51:09.467Z,65.97
2023-04-02T20:53:37.875Z,65.80
2023-04-02T20:56:06.836Z,66.34
2023-04-02T20:58:35.514Z,66.17
2023-04-02T21:01:09.675Z,65.89
2023-04-02T21:03:36.791Z,66.28
2023-04-02T21:06:04.197Z,65.21
2023-04-02T21:08:30.875Z,65.97
2023-04-02T21:11:07.495Z,64.77
2023-04-02T21:13:38.642Z,62.98
2023-04-02T21:16:12.267Z,64.11
2023-04-02T21:18:39.102Z,64.33
2023-04-02T21:21:07.309Z,62.79
2023-04-02T21:23:34.406Z,63.93
2023-04-02T21:26:06.412Z,63.32
2023-04-02T21:28:35.019Z,61.76
2023-04-02T21:31:06.651Z,61.90
2023-04-02T21:33:42.362Z,62.57
2023-04-02T21:36:12.071Z,63.80
2023-04-02T21:38:47.585Z,63.98
2023-04-02T21:41:19.708Z,64.64
2023-04-02T21:43:48.334Z,64.74
2023-04-02T21:46:19.813Z,64.04
2023-04-02T21:48:46.832Z,63.56
2023-04-02T21:51:18.716Z,64.10
2023-04-02T21:53:46.140Z,64.21
2023-04-02T21:56:16.548Z,63.48
2023-04-02T21:58:44.487Z,64.01
2023-04-02T22:01:23.822Z,63.94
2023-04-02T22:03:53.717Z,64.37
2023-04-02T22:06:22.186Z,63.63
2023-04-02T22:08:55.231Z,63.94
2023-04-02T22:11:26.608Z,64.54
2023-04-02T22:13:53.850Z,64.08
2023-04-02T22:16:23.942Z,64.06
2023-04-02T22:18:52.300Z,64.26
2023-04-02T22:21:19.712Z,63.99
2023-04-02T22:23:47.015Z,64.25
2023-04-02T22:26:15.988Z,63.86
2023-04-02T22:28:43.025Z,64.56
2023-04-02T22:31:18.675Z,64.17
2023-04-02T22:33:46.301Z,64.28
2023-04-02T22:36:14.332Z,63.33
2023-04-02T22:38:41.350Z,63.97
2023-04-02T22:41:14.134Z,63.69
2023-04-02T22:43:42.913Z,63.22
2023-04-02T22:46:11.269Z,63.75
2023-04-02T22:48:41.247Z,62.71
2023-04-02T22:51:11.759Z,64.57
2023-04-02T22:53:39.225Z,63.66
2023-04-02T22:56:07.570Z,64.98
2023-04-02T22:58:35.065Z,65.00
2023-04-02T23:01:12.307Z,65.30
2023-04-02T23:03:39.088Z,63.67
2023-04-02T23:06:08.570Z,64.43
2023-04-02T23:08:36.724Z,64.30
2023-04-02T23:11:12.254Z,63.52
2023-04-02T23:13:39.938Z,64.60
2023-04-02T23:16:10.070Z,64.75
2023-04-02T23:18:38.494Z,65.14
2023-04-02T23:21:06.628Z,65.05
2023-04-02T23:23:33.459Z,64.85
2023-04-02T23:26:12.599Z,64.77
2023-04-02T23:28:40.062Z,65.76
2023-04-02T23:31:08.444Z,66.12
2023-04-02T23:33:35.713Z,66.23
2023-04-02T23:36:34.599Z,63.84
2023-04-02T23:39:09.453Z,65.09
2023-04-02T23:41:37.955Z,66.00
2023-04-02T23:44:05.800Z,64.39
2023-04-02T23:46:33.235Z,65.13
2023-04-02T23:49:01.023Z,64.20
2023-04-02T23:51:28.843Z,65.17
2023-04-02T23:53:56.289Z,65.19
2023-04-02T23:56:23.020Z,66.64
2023-04-02T23:58:50.911Z,65.28
